createdAt,value
2022-11-20T00:00:31.740Z,187
2022-11-20T00:01:31.576Z,187
2022-11-20T00:02:31.739Z,187
2022-11-20T00:03:31.530Z,187
2022-11-20T00:04:31.557Z,188
2022-11-20T00:05:31.582Z,188
2022-11-20T00:06:31.563Z,188
2022-11-20T00:07:31.594Z,188
2022-11-20T00:08:32.552Z,188
2022-11-20T00:09:32.556Z,188
2022-11-20T00:10:32.567Z,188
2022-11-20T00:11:32.580Z,188
2022-11-20T00:12:32.611Z,188
2022-11-20T00:13:32.532Z,188
2022-11-20T00:14:32.555Z,188
2022-11-20T00:15:32.760Z,188
2022-11-20T00:16:32.592Z,188
2022-11-20T00:17:32.526Z,188
2022-11-20T00:18:32.546Z,188
2022-11-20T00:19:32.534Z,188
2022-11-20T00:20:32.566Z,188
2022-11-20T00:21:32.533Z,188
2022-11-20T00:22:32.716Z,188
2022-11-20T00:23:32.569Z,188
2022-11-20T00:24:32.562Z,188
2022-11-20T00:25:32.526Z,188
2022-11-20T00:26:32.567Z,188
2022-11-20T00:27:32.562Z,188
2022-11-20T00:28:32.570Z,188
2022-11-20T00:29:32.555Z,188
2022-11-20T00:30:32.587Z,188
2022-11-20T00:31:32.575Z,188
2022-11-20T00:32:32.574Z,188
2022-11-20T00:33:32.568Z,188
2022-11-20T00:34:32.583Z,188
2022-11-20T00:35:32.550Z,188
2022-11-20T00:36:32.705Z,188
2022-11-20T00:37:32.555Z,188
2022-11-20T00:38:32.556Z,188
2022-11-20T00:39:32.557Z,188
2022-11-20T00:40:32.692Z,188
2022-11-20T00:41:32.535Z,188
2022-11-20T00:42:32.555Z,188
2022-11-20T00:43:32.585Z,188
2022-11-20T00:44:32.553Z,188
2022-11-20T00:45:32.544Z,188
2022-11-20T00:46:32.555Z,188
2022-11-20T00:47:32.656Z,188
2022-11-20T00:48:32.584Z,188
2022-11-20T00:49:32.556Z,188
2022-11-20T00:50:32.563Z,188
2022-11-20T00:51:32.575Z,188
2022-11-20T00:52:32.585Z,188
2022-11-20T00:53:32.525Z,188
2022-11-20T00:54:32.566Z,188
2022-11-20T00:55:32.565Z,188
2022-11-20T00:56:32.591Z,188
2022-11-20T00:57:32.554Z,188
2022-11-20T00:58:32.579Z,188
2022-11-20T00:59:32.562Z,188
2022-11-20T01:00:32.583Z,188
2022-11-20T01:01:32.629Z,188
2022-11-20T01:02:32.664Z,188
2022-11-20T01:03:32.582Z,188
2022-11-20T01:04:32.561Z,188
2022-11-20T01:05:32.565Z,188
2022-11-20T01:06:32.569Z,188
2022-11-20T01:07:32.608Z,188
2022-11-20T01:08:32.568Z,188
2022-11-20T01:09:32.568Z,188
2022-11-20T01:10:32.530Z,188
2022-11-20T01:11:32.554Z,188
2022-11-20T01:12:32.556Z,188
2022-11-20T01:13:32.559Z,188
2022-11-20T01:14:32.511Z,188
2022-11-20T01:15:32.575Z,188
2022-11-20T01:16:32.549Z,188
2022-11-20T01:17:32.566Z,188
2022-11-20T01:18:32.713Z,188
2022-11-20T01:19:32.569Z,188
2022-11-20T01:20:32.549Z,188
2022-11-20T01:21:32.550Z,188
2022-11-20T01:22:32.534Z,188
2022-11-20T01:23:32.602Z,188
2022-11-20T01:24:32.544Z,188
2022-11-20T01:25:32.559Z,188
2022-11-20T01:26:32.493Z,188
2022-11-20T01:27:32.590Z,188
2022-11-20T01:28:32.550Z,188
2022-11-20T01:29:32.539Z,188
2022-11-20T01:30:32.511Z,188
2022-11-20T01:31:32.723Z,188
2022-11-20T01:32:32.574Z,188
2022-11-20T01:33:32.576Z,188
2022-11-20T01:34:32.604Z,188
2022-11-20T01:35:32.547Z,188
2022-11-20T01:36:32.586Z,188
2022-11-20T01:37:32.546Z,188
2022-11-20T01:38:32.538Z,188
2022-11-20T01:39:32.530Z,188
2022-11-20T01:40:32.729Z,188
2022-11-20T01:41:32.703Z,188
2022-11-20T01:42:32.688Z,188
2022-11-20T01:43:32.733Z,188
2022-11-20T01:44:32.678Z,188
2022-11-20T01:45:32.663Z,188
2022-11-20T01:46:32.639Z,188
2022-11-20T01:47:32.746Z,188
2022-11-20T01:48:32.752Z,188
2022-11-20T01:49:32.567Z,188
2022-11-20T01:50:32.543Z,188
2022-11-20T01:51:32.536Z,188
2022-11-20T01:52:32.547Z,188
2022-11-20T01:53:32.547Z,188
2022-11-20T01:54:32.544Z,188
2022-11-20T01:55:32.565Z,188
2022-11-20T01:56:32.609Z,188
2022-11-20T01:57:32.537Z,188
2022-11-20T01:58:32.517Z,188
2022-11-20T01:59:32.526Z,188
2022-11-20T02:00:32.601Z,188
2022-11-20T02:01:32.583Z,188
2022-11-20T02:02:32.530Z,188
2022-11-20T02:03:32.537Z,188
2022-11-20T02:04:32.573Z,188
2022-11-20T02:05:32.614Z,188
2022-11-20T02:06:32.551Z,188
2022-11-20T02:07:32.624Z,188
2022-11-20T02:08:32.552Z,188
2022-11-20T02:09:32.518Z,188
2022-11-20T02:10:32.617Z,188
2022-11-20T02:11:32.574Z,188
2022-11-20T02:12:32.575Z,188
2022-11-20T02:13:32.522Z,188
2022-11-20T02:14:32.539Z,188
2022-11-20T02:15:32.598Z,188
2022-11-20T02:16:32.548Z,188
2022-11-20T02:17:32.520Z,188
2022-11-20T02:18:32.543Z,188
2022-11-20T02:19:32.555Z,188
2022-11-20T02:20:32.565Z,188
2022-11-20T02:21:32.523Z,188
2022-11-20T02:22:32.562Z,188
2022-11-20T02:23:32.542Z,188
2022-11-20T02:24:32.577Z,188
2022-11-20T02:25:32.523Z,188
2022-11-20T02:26:32.540Z,188
2022-11-20T02:27:32.546Z,188
2022-11-20T02:28:32.552Z,188
2022-11-20T02:29:32.542Z,188
2022-11-20T02:30:32.659Z,188
2022-11-20T02:31:32.568Z,188
2022-11-20T02:32:32.555Z,188
2022-11-20T02:33:32.522Z,188
2022-11-20T02:34:32.552Z,188
2022-11-20T02:35:32.537Z,188
2022-11-20T02:36:32.564Z,188
2022-11-20T02:37:32.535Z,188
2022-11-20T02:38:32.544Z,188
2022-11-20T02:39:32.560Z,188
2022-11-20T02:40:32.545Z,188
2022-11-20T02:41:32.530Z,188
2022-11-20T02:42:32.601Z,188
2022-11-20T02:43:32.558Z,188
2022-11-20T02:44:32.545Z,188
2022-11-20T02:45:32.644Z,188
2022-11-20T02:46:32.561Z,188
2022-11-20T02:47:32.539Z,188
2022-11-20T02:48:33.956Z,188
2022-11-20T02:49:32.501Z,188
2022-11-20T02:50:32.547Z,188
2022-11-20T02:51:32.553Z,188
2022-11-20T02:52:32.587Z,188
2022-11-20T02:53:32.556Z,188
2022-11-20T02:54:32.557Z,188
2022-11-20T02:55:32.537Z,188
2022-11-20T02:56:32.525Z,188
2022-11-20T02:57:32.507Z,188
2022-11-20T02:58:32.559Z,188
2022-11-20T02:59:32.561Z,188
2022-11-20T03:00:32.554Z,188
2022-11-20T03:01:32.554Z,188
2022-11-20T03:02:32.538Z,188
2022-11-20T03:03:32.549Z,188
2022-11-20T03:04:32.561Z,188
2022-11-20T03:05:32.539Z,188
2022-11-20T03:06:32.536Z,188
2022-11-20T03:07:32.620Z,188
2022-11-20T03:08:32.515Z,188
2022-11-20T03:09:32.570Z,188
2022-11-20T03:10:32.766Z,188
2022-11-20T03:11:32.538Z,188
2022-11-20T03:12:32.679Z,188
2022-11-20T03:13:32.690Z,188
2022-11-20T03:14:32.588Z,188
2022-11-20T03:15:32.699Z,188
2022-11-20T03:16:32.731Z,188
2022-11-20T03:17:32.526Z,188
2022-11-20T03:18:32.533Z,188
2022-11-20T03:19:32.588Z,188
2022-11-20T03:20:32.675Z,188
2022-11-20T03:21:32.685Z,188
2022-11-20T03:22:32.520Z,188
2022-11-20T03:23:32.682Z,188
2022-11-20T03:24:32.678Z,188
2022-11-20T03:25:32.589Z,188
2022-11-20T03:26:32.673Z,188
2022-11-20T03:27:32.691Z,188
2022-11-20T03:28:32.662Z,188
2022-11-20T03:29:32.562Z,188
2022-11-20T03:30:32.685Z,188
2022-11-20T03:31:32.665Z,188
2022-11-20T03:32:32.644Z,188
2022-11-20T03:33:32.599Z,188
2022-11-20T03:34:32.524Z,188
2022-11-20T03:35:32.544Z,188
2022-11-20T03:36:32.539Z,188
2022-11-20T03:37:32.554Z,188
2022-11-20T03:38:32.538Z,188
2022-11-20T03:39:32.580Z,188
2022-11-20T03:40:32.659Z,188
2022-11-20T03:41:32.620Z,188
2022-11-20T03:42:32.643Z,188
2022-11-20T03:43:32.791Z,188
2022-11-20T03:44:32.548Z,188
2022-11-20T03:45:32.540Z,188
2022-11-20T03:46:32.552Z,188
2022-11-20T03:47:32.530Z,188
2022-11-20T03:48:32.550Z,188
2022-11-20T03:49:32.718Z,188
2022-11-20T03:50:32.523Z,188
2022-11-20T03:51:32.534Z,188
2022-11-20T03:52:32.528Z,188
2022-11-20T03:53:32.544Z,188
2022-11-20T03:54:32.511Z,188
2022-11-20T03:55:32.536Z,188
2022-11-20T03:56:32.564Z,188
2022-11-20T03:57:32.528Z,188
2022-11-20T03:58:32.525Z,188
2022-11-20T03:59:32.530Z,188
2022-11-20T04:00:32.555Z,188
2022-11-20T04:01:32.618Z,188
2022-11-20T04:02:32.493Z,188
2022-11-20T04:03:32.515Z,188
2022-11-20T04:04:32.561Z,188
2022-11-20T04:05:32.551Z,188
2022-11-20T04:06:32.536Z,188
2022-11-20T04:07:32.620Z,188
2022-11-20T04:08:32.531Z,188
2022-11-20T04:09:32.492Z,188
2022-11-20T04:10:32.532Z,188
2022-11-20T04:11:32.534Z,188
2022-11-20T04:12:32.522Z,188
2022-11-20T04:13:32.535Z,188
2022-11-20T04:14:32.531Z,188
2022-11-20T04:15:35.713Z,188
2022-11-20T04:16:32.527Z,188
2022-11-20T04:17:32.514Z,188
2022-11-20T04:18:32.658Z,188
2022-11-20T04:19:32.527Z,188
2022-11-20T04:20:32.533Z,188
2022-11-20T04:21:32.503Z,188
2022-11-20T04:22:32.548Z,188
2022-11-20T04:23:32.522Z,188
2022-11-20T04:24:32.524Z,188
2022-11-20T04:25:32.509Z,188
2022-11-20T04:26:32.545Z,188
2022-11-20T04:27:32.549Z,188
2022-11-20T04:28:32.660Z,188
2022-11-20T04:29:32.503Z,188
2022-11-20T04:30:32.646Z,188
2022-11-20T04:31:32.534Z,188
2022-11-20T04:32:32.545Z,188
2022-11-20T04:33:34.239Z,188
2022-11-20T04:34:32.540Z,188
2022-11-20T04:35:32.515Z,188
2022-11-20T04:36:32.602Z,188
2022-11-20T04:37:32.538Z,188
2022-11-20T04:38:32.549Z,188
2022-11-20T04:39:32.611Z,188
2022-11-20T04:40:32.549Z,188
2022-11-20T04:41:32.550Z,188
2022-11-20T04:42:32.549Z,188
2022-11-20T04:43:32.551Z,188
2022-11-20T04:44:32.508Z,188
2022-11-20T04:45:32.530Z,189
2022-11-20T04:46:32.554Z,188
2022-11-20T04:47:32.541Z,188
2022-11-20T04:48:32.525Z,188
2022-11-20T04:49:32.588Z,188
2022-11-20T04:50:32.553Z,189
2022-11-20T04:51:32.533Z,188
2022-11-20T04:52:32.544Z,188
2022-11-20T04:53:32.498Z,188
2022-11-20T04:54:32.518Z,188
2022-11-20T04:55:32.511Z,188
2022-11-20T04:56:32.601Z,188
2022-11-20T04:57:32.535Z,188
2022-11-20T04:58:32.558Z,188
2022-11-20T04:59:32.525Z,189
2022-11-20T05:00:32.544Z,189
2022-11-20T05:01:32.600Z,189
2022-11-20T05:02:32.559Z,189
2022-11-20T05:03:32.606Z,189
2022-11-20T05:04:32.533Z,189
2022-11-20T05:05:32.494Z,189
2022-11-20T05:06:32.516Z,189
2022-11-20T05:07:32.648Z,189
2022-11-20T05:08:32.544Z,189
2022-11-20T05:09:32.514Z,189
2022-11-20T05:10:32.626Z,189
2022-11-20T05:11:32.525Z,189
2022-11-20T05:12:32.538Z,189
2022-11-20T05:13:32.517Z,189
2022-11-20T05:14:32.527Z,189
2022-11-20T05:15:32.545Z,189
2022-11-20T05:16:32.521Z,189
2022-11-20T05:17:32.502Z,189
2022-11-20T05:18:32.586Z,189
2022-11-20T05:19:32.536Z,189
2022-11-20T05:20:32.517Z,189
2022-11-20T05:21:32.492Z,189
2022-11-20T05:22:32.539Z,189
2022-11-20T05:23:32.518Z,189
2022-11-20T05:24:32.602Z,189
2022-11-20T05:25:32.666Z,189
2022-11-20T05:26:32.536Z,189
2022-11-20T05:27:32.430Z,189
2022-11-20T05:28:32.539Z,189
2022-11-20T05:29:32.497Z,189
2022-11-20T05:30:32.528Z,189
2022-11-20T05:31:32.620Z,189
2022-11-20T05:32:32.525Z,189
2022-11-20T05:33:32.517Z,189
2022-11-20T05:34:32.516Z,189
2022-11-20T05:35:32.569Z,189
2022-11-20T05:36:32.549Z,189
2022-11-20T05:37:32.495Z,189
2022-11-20T05:38:32.586Z,189
2022-11-20T05:39:32.511Z,189
2022-11-20T05:40:32.539Z,189
2022-11-20T05:41:32.507Z,189
2022-11-20T05:42:32.533Z,189
2022-11-20T05:43:32.512Z,189
2022-11-20T05:44:32.520Z,189
2022-11-20T05:45:32.504Z,189
2022-11-20T05:46:32.517Z,189
2022-11-20T05:47:32.517Z,189
2022-11-20T05:48:32.545Z,189
2022-11-20T05:49:32.496Z,189
2022-11-20T05:50:32.898Z,189
2022-11-20T05:51:32.582Z,189
2022-11-20T05:52:33.160Z,189
2022-11-20T05:53:32.507Z,189
2022-11-20T05:54:32.570Z,189
2022-11-20T05:55:32.545Z,189
2022-11-20T05:56:32.520Z,189
2022-11-20T05:57:32.607Z,189
2022-11-20T05:58:32.529Z,189
2022-11-20T05:59:32.492Z,189
2022-11-20T06:00:32.540Z,189
2022-11-20T06:01:32.525Z,189
2022-11-20T06:02:32.958Z,189
2022-11-20T06:03:32.617Z,189
2022-11-20T06:04:32.510Z,189
2022-11-20T06:05:32.487Z,189
2022-11-20T06:06:32.538Z,189
2022-11-20T06:07:32.626Z,189
2022-11-20T06:08:32.630Z,189
2022-11-20T06:09:32.533Z,189
2022-11-20T06:10:32.516Z,189
2022-11-20T06:11:32.530Z,189
2022-11-20T06:12:32.541Z,189
2022-11-20T06:13:32.628Z,189
2022-11-20T06:14:32.494Z,189
2022-11-20T06:15:32.530Z,189
2022-11-20T06:16:32.528Z,189
2022-11-20T06:17:32.527Z,189
2022-11-20T06:18:32.614Z,189
2022-11-20T06:19:32.526Z,189
2022-11-20T06:20:33.387Z,189
2022-11-20T06:21:32.608Z,189
2022-11-20T06:22:32.614Z,189
2022-11-20T06:23:32.504Z,189
2022-11-20T06:24:32.591Z,189
2022-11-20T06:25:32.528Z,189
2022-11-20T06:26:32.506Z,189
2022-11-20T06:27:32.563Z,189
2022-11-20T06:28:32.551Z,189
2022-11-20T06:29:34.085Z,189
2022-11-20T06:30:32.537Z,189
2022-11-20T06:31:32.515Z,189
2022-11-20T06:32:32.514Z,189
2022-11-20T06:33:32.566Z,189
2022-11-20T06:34:32.507Z,189
2022-11-20T06:35:32.510Z,189
2022-11-20T06:36:32.529Z,189
2022-11-20T06:37:32.517Z,189
2022-11-20T06:38:32.512Z,189
2022-11-20T06:39:32.518Z,189
2022-11-20T06:40:32.554Z,189
2022-11-20T06:41:32.519Z,189
2022-11-20T06:42:32.500Z,189
2022-11-20T06:43:32.528Z,189
2022-11-20T06:44:32.522Z,189
2022-11-20T06:45:32.505Z,189
2022-11-20T06:46:32.493Z,189
2022-11-20T06:47:32.521Z,189
2022-11-20T06:48:32.548Z,189
2022-11-20T06:49:32.549Z,189
2022-11-20T06:50:32.535Z,189
2022-11-20T06:51:32.560Z,189
2022-11-20T06:52:32.529Z,189
2022-11-20T06:53:32.508Z,189
2022-11-20T06:54:32.511Z,189
2022-11-20T06:55:32.534Z,189
2022-11-20T06:56:32.512Z,189
2022-11-20T06:57:32.512Z,189
2022-11-20T06:58:32.508Z,189
2022-11-20T06:59:32.532Z,189
2022-11-20T07:00:32.559Z,189
2022-11-20T07:01:32.521Z,189
2022-11-20T07:02:32.506Z,189
2022-11-20T07:03:32.614Z,189
2022-11-20T07:04:32.555Z,189
2022-11-20T07:05:32.513Z,189
2022-11-20T07:06:32.552Z,189
2022-11-20T07:07:32.595Z,189
2022-11-20T07:08:32.494Z,189
2022-11-20T07:09:32.514Z,189
2022-11-20T07:10:32.523Z,189
2022-11-20T07:11:32.518Z,189
2022-11-20T07:12:32.573Z,189
2022-11-20T07:13:32.540Z,189
2022-11-20T07:14:32.505Z,189
2022-11-20T07:15:32.568Z,189
2022-11-20T07:16:32.522Z,189
2022-11-20T07:17:32.506Z,189
2022-11-20T07:18:32.486Z,189
2022-11-20T07:19:32.655Z,189
2022-11-20T07:20:32.539Z,189
2022-11-20T07:21:32.520Z,189
2022-11-20T07:22:32.471Z,189
2022-11-20T07:23:32.517Z,189
2022-11-20T07:24:32.515Z,189
2022-11-20T07:25:32.506Z,189
2022-11-20T07:26:32.488Z,189
2022-11-20T07:27:32.525Z,189
2022-11-20T07:28:32.500Z,189
2022-11-20T07:29:32.531Z,189
2022-11-20T07:30:32.486Z,190
2022-11-20T07:31:32.562Z,189
2022-11-20T07:32:32.525Z,189
2022-11-20T07:33:32.542Z,190
2022-11-20T07:34:32.537Z,189
2022-11-20T07:35:32.527Z,190
2022-11-20T07:36:32.516Z,190
2022-11-20T07:37:32.497Z,190
2022-11-20T07:38:32.499Z,190
2022-11-20T07:39:32.506Z,190
2022-11-20T07:40:32.562Z,190
2022-11-20T07:41:32.558Z,190
2022-11-20T07:42:32.626Z,190
2022-11-20T07:43:34.836Z,190
2022-11-20T07:44:32.609Z,190
2022-11-20T07:45:32.499Z,190
2022-11-20T07:46:32.505Z,190
2022-11-20T07:47:32.535Z,190
2022-11-20T07:48:32.547Z,190
2022-11-20T07:49:32.542Z,190
2022-11-20T07:50:32.504Z,190
2022-11-20T07:51:32.554Z,190
2022-11-20T07:52:33.791Z,190
2022-11-20T07:53:32.553Z,190
2022-11-20T07:54:32.501Z,190
2022-11-20T07:55:32.535Z,190
2022-11-20T07:56:32.568Z,190
2022-11-20T07:57:32.511Z,190
2022-11-20T07:58:32.530Z,190
2022-11-20T07:59:32.550Z,190
2022-11-20T08:00:32.546Z,190
2022-11-20T08:01:32.540Z,190
2022-11-20T08:02:33.541Z,190
2022-11-20T08:03:32.520Z,190
2022-11-20T08:04:32.509Z,190
2022-11-20T08:05:32.507Z,190
2022-11-20T08:06:32.488Z,190
2022-11-20T08:07:32.587Z,190
2022-11-20T08:08:33.987Z,190
2022-11-20T08:09:32.525Z,190
2022-11-20T08:10:32.497Z,190
2022-11-20T08:11:32.550Z,190
2022-11-20T08:12:34.050Z,190
2022-11-20T08:13:32.504Z,190
2022-11-20T08:14:32.474Z,190
2022-11-20T08:15:32.515Z,191
2022-11-20T08:16:32.510Z,191
2022-11-20T08:17:32.520Z,191
2022-11-20T08:18:33.000Z,191
2022-11-20T08:19:32.540Z,191
2022-11-20T08:20:32.533Z,191
2022-11-20T08:21:37.813Z,191
2022-11-20T08:22:32.731Z,191
2022-11-20T08:23:32.555Z,191
2022-11-20T08:24:32.520Z,191
2022-11-20T08:25:32.531Z,191
2022-11-20T08:26:32.499Z,191
2022-11-20T08:27:32.531Z,191
2022-11-20T08:28:32.492Z,192
2022-11-20T08:29:32.512Z,192
2022-11-20T08:30:32.483Z,192
2022-11-20T08:31:32.516Z,192
2022-11-20T08:32:33.153Z,192
2022-11-20T08:33:32.514Z,192
2022-11-20T08:34:32.489Z,192
2022-11-20T08:35:32.496Z,189
2022-11-20T08:36:32.520Z,189
2022-11-20T08:37:32.513Z,189
2022-11-20T08:38:32.489Z,189
2022-11-20T08:39:32.543Z,189
2022-11-20T08:40:32.504Z,189
2022-11-20T08:41:32.521Z,189
2022-11-20T08:42:32.481Z,189
2022-11-20T08:43:32.527Z,189
2022-11-20T08:44:32.508Z,189
2022-11-20T08:45:34.895Z,189
2022-11-20T08:46:32.474Z,189
2022-11-20T08:47:32.536Z,189
2022-11-20T08:48:32.536Z,189
2022-11-20T08:49:32.538Z,189
2022-11-20T08:50:32.518Z,189
2022-11-20T08:51:32.499Z,189
2022-11-20T08:52:33.471Z,189
2022-11-20T08:53:32.488Z,189
2022-11-20T08:54:32.481Z,188
2022-11-20T08:55:32.533Z,188
2022-11-20T08:56:32.525Z,188
2022-11-20T08:57:32.519Z,188
2022-11-20T08:58:48.846Z,188
2022-11-20T09:00:32.737Z,188
2022-11-20T09:01:32.540Z,188
2022-11-20T09:02:33.047Z,188
2022-11-20T09:03:33.022Z,188
2022-11-20T09:04:32.538Z,188
2022-11-20T09:05:32.524Z,188
2022-11-20T09:06:32.522Z,188
2022-11-20T09:07:32.546Z,188
2022-11-20T09:08:32.526Z,188
2022-11-20T09:09:32.480Z,188
2022-11-20T09:10:32.511Z,188
2022-11-20T09:11:32.504Z,188
2022-11-20T09:12:32.506Z,188
2022-11-20T09:13:32.503Z,188
2022-11-20T09:14:32.512Z,187
2022-11-20T09:15:32.599Z,187
2022-11-20T09:16:32.575Z,187
2022-11-20T09:17:32.479Z,187
2022-11-20T09:18:32.563Z,187
2022-11-20T09:19:36.448Z,187
2022-11-20T09:20:32.525Z,187
2022-11-20T09:21:32.515Z,187
2022-11-20T09:22:32.601Z,187
2022-11-20T09:23:32.519Z,187
2022-11-20T09:24:32.537Z,187
2022-11-20T09:25:32.493Z,187
2022-11-20T09:26:32.523Z,187
2022-11-20T09:27:32.506Z,187
2022-11-20T09:28:32.556Z,187
2022-11-20T09:29:32.478Z,187
2022-11-20T09:30:32.493Z,187
2022-11-20T09:31:32.498Z,187
2022-11-20T09:32:32.549Z,186
2022-11-20T09:33:32.499Z,186
2022-11-20T09:34:32.521Z,186
2022-11-20T09:35:32.507Z,186
2022-11-20T09:36:32.526Z,186
2022-11-20T09:37:32.473Z,186
2022-11-20T09:38:32.507Z,186
2022-11-20T09:39:32.496Z,186
2022-11-20T09:40:32.503Z,186
2022-11-20T09:41:32.471Z,186
2022-11-20T09:42:32.807Z,186
2022-11-20T09:43:35.205Z,186
2022-11-20T09:44:32.509Z,186
2022-11-20T09:45:32.557Z,186
2022-11-20T09:46:32.491Z,186
2022-11-20T09:47:32.501Z,186
2022-11-20T09:48:32.506Z,186
2022-11-20T09:49:32.973Z,186
2022-11-20T09:50:32.500Z,185
2022-11-20T09:51:32.512Z,185
2022-11-20T09:52:32.535Z,185
2022-11-20T09:53:32.493Z,185
2022-11-20T09:54:32.494Z,185
2022-11-20T09:55:32.561Z,185
2022-11-20T09:56:32.522Z,185
2022-11-20T09:57:32.475Z,185
2022-11-20T09:58:32.492Z,185
2022-11-20T09:59:32.490Z,185
2022-11-20T10:00:32.642Z,185
2022-11-20T10:01:32.509Z,185
2022-11-20T10:02:32.619Z,185
2022-11-20T10:03:32.529Z,185
2022-11-20T10:04:36.714Z,185
2022-11-20T10:05:32.502Z,185
2022-11-20T10:06:32.534Z,185
2022-11-20T10:07:33.177Z,185
2022-11-20T10:08:32.539Z,185
2022-11-20T10:09:32.474Z,184
2022-11-20T10:10:32.460Z,184
2022-11-20T10:11:32.513Z,184
2022-11-20T10:12:32.496Z,184
2022-11-20T10:13:32.515Z,184
2022-11-20T10:14:32.469Z,184
2022-11-20T10:15:32.504Z,184
2022-11-20T10:16:36.663Z,184
2022-11-20T10:17:32.525Z,184
2022-11-20T10:18:32.521Z,184
2022-11-20T10:19:32.528Z,184
2022-11-20T10:20:32.526Z,184
2022-11-20T10:21:32.522Z,184
2022-11-20T10:22:32.485Z,184
2022-11-20T10:23:32.484Z,184
2022-11-20T10:24:32.487Z,184
2022-11-20T10:25:32.493Z,184
2022-11-20T10:26:32.468Z,184
2022-11-20T10:27:32.499Z,184
2022-11-20T10:28:32.528Z,184
2022-11-20T10:29:32.524Z,184
2022-11-20T10:30:32.527Z,183
2022-11-20T10:31:32.518Z,183
2022-11-20T10:32:32.532Z,183
2022-11-20T10:33:50.084Z,183
2022-11-20T10:34:32.549Z,183
2022-11-20T10:35:32.475Z,183
2022-11-20T10:36:32.504Z,183
2022-11-20T10:37:32.548Z,183
2022-11-20T10:38:32.474Z,183
2022-11-20T10:39:32.506Z,183
2022-11-20T10:40:32.521Z,183
2022-11-20T10:41:35.942Z,183
2022-11-20T10:42:32.940Z,183
2022-11-20T10:43:32.529Z,183
2022-11-20T10:44:32.486Z,183
2022-11-20T10:45:32.491Z,183
2022-11-20T10:46:47.866Z,183
2022-11-20T10:47:32.561Z,183
2022-11-20T10:48:32.507Z,183
2022-11-20T10:49:32.503Z,183
2022-11-20T10:50:32.469Z,183
2022-11-20T10:51:32.633Z,183
2022-11-20T10:52:32.977Z,183
2022-11-20T10:53:32.556Z,183
2022-11-20T10:54:32.489Z,183
2022-11-20T10:55:32.530Z,183
2022-11-20T10:56:32.490Z,183
2022-11-20T10:57:32.595Z,182
2022-11-20T10:58:32.479Z,182
2022-11-20T10:59:32.502Z,182
2022-11-20T11:00:32.497Z,182
2022-11-20T11:01:32.580Z,182
2022-11-20T11:02:33.173Z,182
2022-11-20T11:03:32.506Z,182
2022-11-20T11:04:32.515Z,182
2022-11-20T11:05:32.595Z,182
2022-11-20T11:06:32.575Z,182
2022-11-20T11:07:32.529Z,182
2022-11-20T11:08:32.453Z,182
2022-11-20T11:09:32.556Z,182
2022-11-20T11:10:32.466Z,182
2022-11-20T11:11:32.499Z,182
2022-11-20T11:12:32.957Z,182
2022-11-20T11:13:32.594Z,182
2022-11-20T11:14:32.449Z,182
2022-11-20T11:15:32.510Z,182
2022-11-20T11:16:32.514Z,182
2022-11-20T11:17:32.507Z,182
2022-11-20T11:18:32.475Z,182
2022-11-20T11:19:32.547Z,182
2022-11-20T11:20:32.496Z,182
2022-11-20T11:21:32.485Z,182
2022-11-20T11:22:32.479Z,182
2022-11-20T11:23:32.479Z,182
2022-11-20T11:24:42.361Z,182
2022-11-20T11:25:32.552Z,182
2022-11-20T11:26:32.464Z,182
2022-11-20T11:27:32.537Z,182
2022-11-20T11:28:32.496Z,181
2022-11-20T11:29:32.559Z,181
2022-11-20T11:30:32.474Z,181
2022-11-20T11:31:32.500Z,181
2022-11-20T11:32:32.477Z,181
2022-11-20T11:33:32.520Z,181
2022-11-20T11:34:32.474Z,181
2022-11-20T11:35:32.568Z,181
2022-11-20T11:36:32.512Z,181
2022-11-20T11:37:32.489Z,181
2022-11-20T11:38:32.475Z,181
2022-11-20T11:39:32.514Z,181
2022-11-20T11:40:32.553Z,181
2022-11-20T11:41:32.512Z,181
2022-11-20T11:42:33.526Z,181
2022-11-20T11:43:36.750Z,181
2022-11-20T11:44:32.491Z,181
2022-11-20T11:45:32.482Z,181
2022-11-20T11:46:32.471Z,181
2022-11-20T11:47:32.505Z,181
2022-11-20T11:48:32.522Z,181
2022-11-20T11:49:32.491Z,181
2022-11-20T11:50:32.459Z,181
2022-11-20T11:51:32.494Z,181
2022-11-20T11:52:32.562Z,181
2022-11-20T11:53:32.505Z,181
2022-11-20T11:54:32.482Z,181
2022-11-20T11:55:32.506Z,181
2022-11-20T11:56:32.483Z,180
2022-11-20T11:57:32.488Z,180
2022-11-20T11:58:32.459Z,180
2022-11-20T11:59:32.528Z,180
2022-11-20T12:00:32.564Z,180
2022-11-20T12:01:33.039Z,180
2022-11-20T12:02:32.550Z,180
2022-11-20T12:03:32.504Z,180
2022-11-20T12:04:32.540Z,180
2022-11-20T12:05:32.490Z,180
2022-11-20T12:06:32.484Z,180
2022-11-20T12:07:46.008Z,180
2022-11-20T12:08:32.654Z,180
2022-11-20T12:09:32.477Z,180
2022-11-20T12:10:32.620Z,180
2022-11-20T12:11:32.496Z,180
2022-11-20T12:12:32.483Z,180
2022-11-20T12:13:32.477Z,180
2022-11-20T12:14:32.486Z,180
2022-11-20T12:15:32.497Z,180
2022-11-20T12:16:32.518Z,180
2022-11-20T12:17:32.520Z,179
2022-11-20T12:18:32.501Z,179
2022-11-20T12:19:32.496Z,179
2022-11-20T12:20:32.493Z,179
2022-11-20T12:21:32.485Z,179
2022-11-20T12:22:32.551Z,179
2022-11-20T12:23:32.500Z,179
2022-11-20T12:24:32.564Z,179
2022-11-20T12:25:32.451Z,179
2022-11-20T12:26:32.468Z,179
2022-11-20T12:27:32.510Z,179
2022-11-20T12:28:32.493Z,179
2022-11-20T12:29:32.477Z,179
2022-11-20T12:30:32.504Z,179
2022-11-20T12:31:32.477Z,179
2022-11-20T12:32:33.428Z,179
2022-11-20T12:33:32.475Z,179
2022-11-20T12:34:32.495Z,179
2022-11-20T12:35:32.466Z,179
2022-11-20T12:36:32.488Z,179
2022-11-20T12:37:32.449Z,179
2022-11-20T12:38:32.495Z,178
2022-11-20T12:39:32.533Z,178
2022-11-20T12:40:32.481Z,178
2022-11-20T12:41:32.474Z,178
2022-11-20T12:42:33.028Z,178
2022-11-20T12:43:32.479Z,178
2022-11-20T12:44:32.484Z,178
2022-11-20T12:45:32.465Z,178
2022-11-20T12:46:32.489Z,178
2022-11-20T12:47:32.487Z,178
2022-11-20T12:48:32.489Z,178
2022-11-20T12:49:32.499Z,178
2022-11-20T12:50:35.193Z,178
2022-11-20T12:51:32.519Z,178
2022-11-20T12:52:32.680Z,178
2022-11-20T12:53:32.478Z,178
2022-11-20T12:54:32.532Z,178
2022-11-20T12:55:32.489Z,178
2022-11-20T12:56:32.485Z,178
2022-11-20T12:57:32.481Z,178
2022-11-20T12:58:32.490Z,177
2022-11-20T12:59:32.471Z,177
2022-11-20T13:00:32.474Z,177
2022-11-20T13:01:32.510Z,177
2022-11-20T13:02:33.215Z,177
2022-11-20T13:03:32.495Z,177
2022-11-20T13:04:32.484Z,177
2022-11-20T13:05:32.522Z,177
2022-11-20T13:06:32.461Z,177
2022-11-20T13:07:32.560Z,177
2022-11-20T13:08:32.509Z,177
2022-11-20T13:09:32.462Z,177
2022-11-20T13:10:32.506Z,177
2022-11-20T13:11:32.497Z,177
2022-11-20T13:12:33.634Z,177
2022-11-20T13:13:32.461Z,177
2022-11-20T13:14:32.554Z,177
2022-11-20T13:15:32.467Z,177
2022-11-20T13:16:32.481Z,177
2022-11-20T13:17:32.452Z,177
2022-11-20T13:18:32.489Z,177
2022-11-20T13:19:32.489Z,177
2022-11-20T13:20:32.490Z,177
2022-11-20T13:21:32.450Z,177
2022-11-20T13:22:32.556Z,177
2022-11-20T13:23:32.492Z,177
2022-11-20T13:24:32.548Z,177
2022-11-20T13:25:32.516Z,177
2022-11-20T13:26:32.482Z,177
2022-11-20T13:27:32.494Z,177
2022-11-20T13:28:32.454Z,177
2022-11-20T13:29:32.456Z,177
2022-11-20T13:30:32.489Z,177
2022-11-20T13:31:32.527Z,177
2022-11-20T13:32:32.481Z,176
2022-11-20T13:33:32.441Z,176
2022-11-20T13:34:32.476Z,176
2022-11-20T13:35:32.513Z,176
2022-11-20T13:36:32.556Z,176
2022-11-20T13:37:32.454Z,176
2022-11-20T13:38:34.001Z,176
2022-11-20T13:39:32.453Z,176
2022-11-20T13:40:32.492Z,176
2022-11-20T13:41:32.557Z,176
2022-11-20T13:42:32.485Z,176
2022-11-20T13:43:32.493Z,176
2022-11-20T13:44:32.640Z,176
2022-11-20T13:45:32.468Z,176
2022-11-20T13:46:32.484Z,176
2022-11-20T13:47:32.541Z,176